createdAt,value
2022-10-24T00:01:14.483Z,12.72
2022-10-24T00:03:41.407Z,12.72
2022-10-24T00:06:09.656Z,12.68
2022-10-24T00:08:37.885Z,12.62
2022-10-24T00:11:10.134Z,12.65
2022-10-24T00:13:37.249Z,12.67
2022-10-24T00:16:03.961Z,12.67
2022-10-24T00:18:30.629Z,12.67
2022-10-24T00:20:57.561Z,12.62
2022-10-24T00:23:24.230Z,12.59
2022-10-24T00:25:50.799Z,12.56
2022-10-24T00:28:17.398Z,12.56
2022-10-24T00:30:43.962Z,12.55
2022-10-24T00:33:10.572Z,12.53
2022-10-24T00:35:37.144Z,12.62
2022-10-24T00:38:03.732Z,12.61
2022-10-24T00:40:30.370Z,12.62
2022-10-24T00:42:57.016Z,12.62
2022-10-24T00:45:57.816Z,12.57
2022-10-24T00:48:31.838Z,12.57
2022-10-24T00:51:03.163Z,12.53
2022-10-24T00:53:33.909Z,12.51
2022-10-24T00:56:03.376Z,12.48
2022-10-24T00:58:31.002Z,12.44
2022-10-24T01:00:57.695Z,12.44
2022-10-24T01:03:24.664Z,12.47
2022-10-24T01:05:54.169Z,12.52
2022-10-24T01:08:37.241Z,12.61
2022-10-24T01:11:31.278Z,12.62
2022-10-24T01:14:18.114Z,12.60
2022-10-24T01:16:51.777Z,12.59
2022-10-24T01:19:27.424Z,12.60
2022-10-24T01:22:01.870Z,12.59
2022-10-24T01:24:55.453Z,12.59
2022-10-24T01:28:03.582Z,12.52
2022-10-24T01:30:33.104Z,12.52
2022-10-24T01:33:18.861Z,12.42
2022-10-24T01:36:10.795Z,12.38
2022-10-24T01:38:55.145Z,12.36
2022-10-24T01:41:25.282Z,12.35
2022-10-24T01:44:03.155Z,12.31
2022-10-24T01:46:35.176Z,12.33
2022-10-24T01:49:15.825Z,12.31
2022-10-24T01:51:44.820Z,12.30
2022-10-24T01:54:12.646Z,12.25
2022-10-24T01:56:39.402Z,12.28
2022-10-24T01:59:08.507Z,12.27
2022-10-24T02:01:37.088Z,12.29
2022-10-24T02:04:10.189Z,12.28
2022-10-24T02:06:41.836Z,12.22
2022-10-24T02:09:13.639Z,12.18
2022-10-24T02:11:41.910Z,12.15
2022-10-24T02:14:16.771Z,12.09
2022-10-24T02:16:44.959Z,12.07
2022-10-24T02:19:14.121Z,12.05
2022-10-24T02:22:08.968Z,11.98
2022-10-24T02:24:45.118Z,11.97
2022-10-24T02:27:33.719Z,11.93
2022-10-24T02:30:14.142Z,11.86
2022-10-24T02:32:48.179Z,11.91
2022-10-24T02:35:17.922Z,11.88
2022-10-24T02:37:50.249Z,11.89
2022-10-24T02:40:19.436Z,11.93
2022-10-24T02:42:49.847Z,11.93
2022-10-24T02:45:18.212Z,11.96
2022-10-24T02:47:46.178Z,11.93
2022-10-24T02:50:13.682Z,11.90
2022-10-24T02:52:43.150Z,11.89
2022-10-24T02:55:11.656Z,11.87
2022-10-24T02:57:38.966Z,11.86
2022-10-24T03:00:07.518Z,11.84
2022-10-24T03:02:34.233Z,11.78
2022-10-24T03:05:00.783Z,11.79
2022-10-24T03:07:27.559Z,11.81
2022-10-24T03:09:54.240Z,11.82
2022-10-24T09:15:30.942Z,15.59
2022-10-24T09:17:59.537Z,15.60
2022-10-24T09:20:29.586Z,15.66
2022-10-24T09:23:00.751Z,15.68
2022-10-24T09:25:32.122Z,15.73
2022-10-24T09:28:01.563Z,15.76
2022-10-24T09:30:31.414Z,15.74
2022-10-24T09:33:12.908Z,15.80
2022-10-24T09:35:40.364Z,15.85
2022-10-24T09:38:26.586Z,15.90
2022-10-24T09:40:56.183Z,15.96
2022-10-24T09:43:32.660Z,15.96
2022-10-24T09:45:59.134Z,15.98
2022-10-24T09:48:30.748Z,16.04
2022-10-24T09:50:59.070Z,16.02
2022-10-24T09:53:30.574Z,16.01
2022-10-24T09:56:06.918Z,16.09
2022-10-24T09:58:34.069Z,16.13
2022-10-24T10:01:16.573Z,16.18
2022-10-24T10:03:43.839Z,16.25
2022-10-24T10:06:19.566Z,16.33
2022-10-24T10:08:51.513Z,16.41
2022-10-24T10:11:30.750Z,16.44
2022-10-24T10:14:00.405Z,16.48
2022-10-24T10:16:39.263Z,16.50
2022-10-24T10:19:38.305Z,16.53
2022-10-24T10:22:23.410Z,16.53
2022-10-24T10:24:50.095Z,16.53
2022-10-24T10:27:33.900Z,16.49
2022-10-24T10:30:13.471Z,16.49
2022-10-24T10:33:06.736Z,16.49
2022-10-24T10:35:44.807Z,16.52
2022-10-24T10:38:32.057Z,16.47
2022-10-24T10:41:27.652Z,16.59
2022-10-24T10:44:12.308Z,16.68
2022-10-24T10:46:49.927Z,16.73
2022-10-24T10:49:16.530Z,16.79
2022-10-24T10:51:54.952Z,16.82
2022-10-24T10:54:33.485Z,16.83
2022-10-24T10:57:11.614Z,16.89
2022-10-24T10:59:38.183Z,16.90
2022-10-24T11:02:44.743Z,16.88
2022-10-24T11:05:24.838Z,16.80
2022-10-24T11:08:00.766Z,16.76
2022-10-24T11:10:35.440Z,16.80
2022-10-24T11:13:07.777Z,16.86
2022-10-24T11:15:40.351Z,16.92
2022-10-24T11:18:16.485Z,16.96
2022-10-24T11:20:51.282Z,16.83
2022-10-24T11:23:46.794Z,16.91
2022-10-24T11:26:26.961Z,16.98
2022-10-24T11:29:03.058Z,16.95
2022-10-24T11:31:38.164Z,17.06
2022-10-24T11:34:32.701Z,17.13
2022-10-24T11:37:11.557Z,17.17
2022-10-24T11:39:44.373Z,17.12
2022-10-24T11:42:20.172Z,17.09
2022-10-24T11:44:54.861Z,16.98
2022-10-24T11:47:24.360Z,16.97
2022-10-24T11:49:54.250Z,16.97
2022-10-24T11:52:27.541Z,17.05
2022-10-24T11:55:01.970Z,16.98
2022-10-24T11:57:31.577Z,16.93
2022-10-24T11:59:58.924Z,16.97
2022-10-24T12:02:44.595Z,17.04
2022-10-24T12:05:24.224Z,16.97
2022-10-24T12:08:35.883Z,16.88
2022-10-24T12:12:00.415Z,16.90
2022-10-24T12:14:45.209Z,17.01
2022-10-24T12:17:26.370Z,17.22
2022-10-24T12:19:53.239Z,17.39
2022-10-24T12:25:22.418Z,17.47
2022-10-24T12:28:17.826Z,17.86
2022-10-24T12:31:11.802Z,17.75
2022-10-24T12:33:38.376Z,17.72
2022-10-24T12:36:05.489Z,17.65
2022-10-24T12:38:32.041Z,17.61
2022-10-24T12:41:05.862Z,17.65
2022-10-24T12:43:38.553Z,17.63
2022-10-24T12:46:22.870Z,17.70
2022-10-24T12:48:59.319Z,17.83
2022-10-24T12:51:33.266Z,17.98
2022-10-24T12:54:17.201Z,18.67
2022-10-24T12:56:49.741Z,19.09
2022-10-24T12:59:20.043Z,18.91
2022-10-24T13:01:49.219Z,19.03
2022-10-24T13:04:37.540Z,18.61
2022-10-24T13:07:10.095Z,18.37
2022-10-24T13:09:55.722Z,18.44
2022-10-24T13:12:44.041Z,18.43
2022-10-24T13:15:49.119Z,18.34
2022-10-24T13:18:24.919Z,18.28
2022-10-24T13:21:14.942Z,18.07
2022-10-24T13:23:44.811Z,18.06
2022-10-24T13:26:31.018Z,17.99
2022-10-24T13:28:57.614Z,18.11
2022-10-24T13:31:24.102Z,18.06
2022-10-24T13:33:53.291Z,18.08
2022-10-24T13:36:28.526Z,18.12
2022-10-24T13:38:58.254Z,18.20
2022-10-24T13:41:42.143Z,18.45
2022-10-24T13:44:19.149Z,18.26
2022-10-24T13:46:57.202Z,18.42
2022-10-24T13:49:38.272Z,18.35
2022-10-24T13:52:20.116Z,18.47
2022-10-24T13:54:54.327Z,18.50
2022-10-24T13:57:27.617Z,18.35
2022-10-24T13:59:56.767Z,18.39
2022-10-24T14:02:29.771Z,18.32
2022-10-24T14:05:00.390Z,18.17
2022-10-24T14:07:30.698Z,18.16
2022-10-24T14:10:03.948Z,18.27
2022-10-24T14:12:33.404Z,18.32
2022-10-24T14:15:02.694Z,18.28
2022-10-24T14:17:35.899Z,18.16
2022-10-24T14:20:30.149Z,18.21
2022-10-24T14:22:57.807Z,18.22
2022-10-24T14:25:26.909Z,18.02
2022-10-24T14:27:55.841Z,18.00
2022-10-24T14:30:25.674Z,18.04
2022-10-24T14:33:05.960Z,17.94
2022-10-24T14:35:33.883Z,17.98
2022-10-24T14:38:00.977Z,17.96
2022-10-24T14:40:29.983Z,17.94
2022-10-24T14:42:56.770Z,17.81
2022-10-24T14:45:30.271Z,17.82
2022-10-24T14:47:59.332Z,17.87
2022-10-24T14:50:43.174Z,17.70
2022-10-24T14:53:27.306Z,17.64
2022-10-24T14:55:57.027Z,17.61
2022-10-24T14:58:33.581Z,17.53
2022-10-24T15:01:00.836Z,17.49
2022-10-24T15:03:28.851Z,17.46
2022-10-24T15:06:06.935Z,17.47
2022-10-24T15:08:43.411Z,17.43
2022-10-24T15:11:25.397Z,17.37
2022-10-24T15:14:06.706Z,17.39
2022-10-24T15:16:39.614Z,17.33
2022-10-24T15:19:12.738Z,17.37
2022-10-24T15:21:46.347Z,17.28
2022-10-24T15:24:26.719Z,17.27
2022-10-24T15:27:08.283Z,17.22
2022-10-24T15:29:34.877Z,17.20
2022-10-24T15:32:01.509Z,17.18
2022-10-24T15:34:29.943Z,17.13
2022-10-24T15:36:57.553Z,17.12
2022-10-24T15:39:25.312Z,17.06
2022-10-24T15:41:52.954Z,17.01
2022-10-24T15:44:29.431Z,17.01
2022-10-24T15:46:56.639Z,16.93
2022-10-24T15:49:23.301Z,16.90
2022-10-24T15:51:50.966Z,16.89
2022-10-24T15:54:20.199Z,16.85
2022-10-24T15:56:47.219Z,16.79
2022-10-24T15:59:13.989Z,16.73
2022-10-24T16:02:03.032Z,16.73
2022-10-24T16:04:32.478Z,16.68
2022-10-24T16:06:59.165Z,16.59
2022-10-24T16:09:27.580Z,16.59
2022-10-24T16:11:55.000Z,16.54
2022-10-24T16:14:23.206Z,16.53
2022-10-24T16:16:49.793Z,16.48
2022-10-24T16:19:16.528Z,16.47
2022-10-24T16:21:43.412Z,16.41
2022-10-24T16:24:10.770Z,16.43
2022-10-24T16:26:37.789Z,16.36
2022-10-24T16:29:05.169Z,16.37
2022-10-24T16:31:32.152Z,16.33
2022-10-24T16:33:59.323Z,16.33
2022-10-24T16:36:26.599Z,16.22
2022-10-24T16:38:53.239Z,16.25
2022-10-24T16:41:22.831Z,16.16
2022-10-24T16:43:50.113Z,16.17
2022-10-24T16:46:21.435Z,16.10
2022-10-24T16:48:49.106Z,16.10
2022-10-24T16:51:21.063Z,16.08
2022-10-24T16:53:47.858Z,16.04
2022-10-24T16:56:15.689Z,16.06
2022-10-24T16:58:43.234Z,16.01
2022-10-24T17:01:13.707Z,15.98
2022-10-24T17:03:41.285Z,16.03
2022-10-24T17:06:08.885Z,15.96
2022-10-24T17:08:35.488Z,15.98
2022-10-24T17:11:02.256Z,15.91
2022-10-24T17:13:29.194Z,15.86
2022-10-24T17:15:56.596Z,15.88
2022-10-24T17:18:25.465Z,15.85
2022-10-24T17:20:58.950Z,15.88
2022-10-24T17:23:26.235Z,15.80
2022-10-24T17:25:53.140Z,15.77
2022-10-24T17:28:20.045Z,15.76
2022-10-24T17:30:47.121Z,15.77
2022-10-24T17:33:14.760Z,15.73
2022-10-24T17:35:47.899Z,15.74
2022-10-24T17:38:14.393Z,15.71
2022-10-24T17:40:45.367Z,15.71
2022-10-24T17:43:21.342Z,15.73
2022-10-24T17:45:48.838Z,15.67
2022-10-24T17:48:16.099Z,15.63
2022-10-24T17:50:43.086Z,15.64
2022-10-24T17:53:14.287Z,15.64
2022-10-24T17:55:48.293Z,15.61
2022-10-24T17:58:16.018Z,15.62
2022-10-24T18:00:42.829Z,15.62
2022-10-24T18:03:09.571Z,15.59
2022-10-24T18:05:38.349Z,15.55
2022-10-24T18:08:09.842Z,15.62
2022-10-24T18:10:38.116Z,15.55
2022-10-24T18:13:05.060Z,15.57
2022-10-24T18:15:32.019Z,15.61
2022-10-24T18:17:58.617Z,15.59
2022-10-24T18:20:25.174Z,15.56
2022-10-24T18:22:51.897Z,15.56
2022-10-24T18:25:22.677Z,15.47
2022-10-24T18:27:50.667Z,15.45
2022-10-24T18:30:17.320Z,15.48
2022-10-24T18:32:44.570Z,15.45
2022-10-24T18:35:12.145Z,15.39
2022-10-24T18:37:38.920Z,15.36
2022-10-24T18:40:07.800Z,15.33
2022-10-24T18:42:48.452Z,15.31
2022-10-24T18:45:22.106Z,15.27
2022-10-24T18:47:50.157Z,15.26
2022-10-24T18:50:23.237Z,15.27
2022-10-24T18:53:07.636Z,15.23
2022-10-24T18:55:35.501Z,15.28
2022-10-24T18:58:02.918Z,15.21
2022-10-24T19:00:32.742Z,15.18
2022-10-24T19:03:18.351Z,15.18
2022-10-24T19:05:53.786Z,15.22
2022-10-24T19:08:24.769Z,15.19
2022-10-24T19:10:53.431Z,15.21
2022-10-24T19:13:20.273Z,15.17
2022-10-24T19:15:53.761Z,15.13
2022-10-24T19:18:20.634Z,15.12
2022-10-24T19:20:47.289Z,15.09
2022-10-24T19:23:15.513Z,15.09
2022-10-24T19:25:42.185Z,15.08
2022-10-24T19:28:11.376Z,15.06
2022-10-24T19:30:40.863Z,15.03
2022-10-24T19:33:07.391Z,14.98
2022-10-24T19:35:37.343Z,15.00
2022-10-24T19:38:04.144Z,14.93
2022-10-24T19:40:30.735Z,14.89
2022-10-24T19:42:57.875Z,14.86
2022-10-24T19:45:25.400Z,14.86
2022-10-24T19:47:55.684Z,14.79
2022-10-24T19:50:22.429Z,14.79
2022-10-24T19:52:48.935Z,14.76
2022-10-24T19:55:15.594Z,14.75
2022-10-24T19:57:42.181Z,14.81
2022-10-24T20:00:09.266Z,14.79
2022-10-24T20:02:35.819Z,14.79
2022-10-24T20:05:02.419Z,14.73
2022-10-24T20:07:28.963Z,14.71
2022-10-24T20:09:55.501Z,14.70
2022-10-24T20:12:22.098Z,14.71
2022-10-24T20:14:48.690Z,14.69
2022-10-24T20:17:15.291Z,14.66
2022-10-24T20:19:41.899Z,14.68
2022-10-24T20:22:08.462Z,14.68
2022-10-24T20:24:35.195Z,14.68
2022-10-24T20:27:01.841Z,14.68
2022-10-24T20:29:28.556Z,14.70
2022-10-24T20:31:55.170Z,14.69
2022-10-24T20:34:21.737Z,14.76
2022-10-24T20:36:48.385Z,14.73
2022-10-24T20:39:21.154Z,14.75
2022-10-24T20:41:51.698Z,14.70
2022-10-24T20:44:20.658Z,14.72
2022-10-24T20:46:47.213Z,14.70
2022-10-24T20:49:13.866Z,14.72
2022-10-24T20:51:42.507Z,14.76
2022-10-24T20:54:10.370Z,14.73
2022-10-24T20:56:41.965Z,14.71
2022-10-24T20:59:09.030Z,14.70
2022-10-24T21:01:35.689Z,14.68
2022-10-24T21:04:02.411Z,14.66
2022-10-24T21:06:31.906Z,14.70
2022-10-24T21:11:35.079Z,14.72
2022-10-24T21:14:07.709Z,14.72
2022-10-24T21:16:35.381Z,14.68
2022-10-24T21:19:02.796Z,14.61
2022-10-24T21:21:30.049Z,14.65
2022-10-24T21:24:02.391Z,14.64
2022-10-24T21:26:32.973Z,14.63
2022-10-24T21:29:08.843Z,14.64
2022-10-24T21:31:41.300Z,14.72
2022-10-24T21:34:08.144Z,14.64
2022-10-24T21:36:34.735Z,14.59
2022-10-24T21:39:01.333Z,14.51
2022-10-24T21:41:28.390Z,14.44
2022-10-24T21:43:55.352Z,14.39
2022-10-24T21:46:24.694Z,14.33
2022-10-24T21:48:52.718Z,14.32
2022-10-24T21:51:21.720Z,14.32
2022-10-24T21:53:53.871Z,14.39
2022-10-24T21:56:23.082Z,14.33
2022-10-24T22:01:35.657Z,14.30
2022-10-24T22:04:02.695Z,14.27
2022-10-24T22:06:30.838Z,14.25
2022-10-24T22:08:57.959Z,14.23
2022-10-24T22:11:30.566Z,14.22
2022-10-24T22:13:57.673Z,14.20
2022-10-24T22:16:26.602Z,14.19
2022-10-24T22:18:53.362Z,14.17
2022-10-24T22:21:34.762Z,14.16
2022-10-24T22:24:04.612Z,14.16
2022-10-24T22:26:31.588Z,14.17
2022-10-24T22:28:58.092Z,14.15
2022-10-24T22:31:26.797Z,14.21
2022-10-24T22:33:55.040Z,14.16
2022-10-24T22:36:33.480Z,14.15
2022-10-24T22:39:00.195Z,14.11
2022-10-24T22:41:30.138Z,14.16
2022-10-24T22:43:57.103Z,14.15
2022-10-24T22:46:54.310Z,14.12
2022-10-24T22:49:33.004Z,14.12
2022-10-24T22:52:00.000Z,14.11
2022-10-24T22:54:32.828Z,14.10
2022-10-24T22:56:59.501Z,14.07
2022-10-24T22:59:26.260Z,14.06
2022-10-24T23:02:31.166Z,14.04
2022-10-24T23:05:01.049Z,13.94
2022-10-24T23:07:45.589Z,13.89
2022-10-24T23:10:18.795Z,13.87
2022-10-24T23:12:46.404Z,13.88
2022-10-24T23:15:14.295Z,13.80
2022-10-24T23:17:44.223Z,13.80
2022-10-24T23:20:42.933Z,13.79
2022-10-24T23:23:29.910Z,13.78
2022-10-24T23:26:08.576Z,13.82
2022-10-24T23:28:50.219Z,13.76
2022-10-24T23:31:28.746Z,13.69
2022-10-24T23:34:03.395Z,13.66
2022-10-24T23:36:32.658Z,13.64
2022-10-24T23:39:07.566Z,13.62
2022-10-24T23:41:34.319Z,13.64
2022-10-24T23:44:01.163Z,13.62
2022-10-24T23:46:35.826Z,13.58
2022-10-24T23:49:17.907Z,13.56
2022-10-24T23:52:01.677Z,13.59
2022-10-24T23:54:31.579Z,13.51
2022-10-24T23:56:58.562Z,13.56
2022-10-24T23:59:25.128Z,13.54
